sensor_id;sensor_type;location;lat;lon;timestamp;pressure;altitude;pressure_sealevel;temperature;humidity
50226;BME280;36113;50.742;6.432;2022-08-19T00:01:18;98504.41;;;17.93;100.00
50226;BME280;36113;50.742;6.432;2022-08-19T00:03:43;98509.09;;;17.89;100.00
50226;BME280;36113;50.742;6.432;2022-08-19T00:06:08;98508.28;;;17.89;100.00
50226;BME280;36113;50.742;6.432;2022-08-19T00:08:34;98510.19;;;17.87;100.00
50226;BME280;36113;50.742;6.432;2022-08-19T00:11:00;98507.03;;;17.93;100.00
50226;BME280;36113;50.742;6.432;2022-08-19T00:13:25;98506.78;;;17.96;100.00
50226;BME280;36113;50.742;6.432;2022-08-19T00:15:53;98509.84;;;18.01;100.00
50226;BME280;36113;50.742;6.432;2022-08-19T00:18:18;98508.47;;;17.97;100.00
50226;BME280;36113;50.742;6.432;2022-08-19T00:20:44;98508.34;;;17.98;100.00
50226;BME280;36113;50.742;6.432;2022-08-19T00:23:09;98508.16;;;17.90;100.00
50226;BME280;36113;50.742;6.432;2022-08-19T00:25:34;98514.72;;;17.85;100.00
50226;BME280;36113;50.742;6.432;2022-08-19T00:28:01;98522.97;;;17.80;100.00
50226;BME280;36113;50.742;6.432;2022-08-19T00:30:26;98516.63;;;17.83;100.00
50226;BME280;36113;50.742;6.432;2022-08-19T00:32:55;98512.00;;;17.86;100.00
50226;BME280;36113;50.742;6.432;2022-08-19T00:35:20;98512.69;;;17.88;100.00
50226;BME280;36113;50.742;6.432;2022-08-19T00:37:46;98502.91;;;17.90;100.00
50226;BME280;36113;50.742;6.432;2022-08-19T00:40:12;98499.72;;;17.87;100.00
50226;BME280;36113;50.742;6.432;2022-08-19T00:42:38;98501.59;;;17.85;100.00
50226;BME280;36113;50.742;6.432;2022-08-19T00:45:05;98504.13;;;17.86;100.00
50226;BME280;36113;50.742;6.432;2022-08-19T00:47:33;98502.94;;;17.79;100.00
50226;BME280;36113;50.742;6.432;2022-08-19T00:49:58;98493.16;;;17.81;100.00
50226;BME280;36113;50.742;6.432;2022-08-19T00:52:26;98503.25;;;17.86;100.00
50226;BME280;36113;50.742;6.432;2022-08-19T00:54:54;98506.28;;;17.81;100.00
50226;BME280;36113;50.742;6.432;2022-08-19T00:57:20;98500.59;;;17.76;100.00
50226;BME280;36113;50.742;6.432;2022-08-19T00:59:48;98498.91;;;17.75;100.00
50226;BME280;36113;50.742;6.432;2022-08-19T01:02:16;98504.66;;;17.69;100.00
50226;BME280;36113;50.742;6.432;2022-08-19T01:04:42;98502.31;;;17.66;100.00
50226;BME280;36113;50.742;6.432;2022-08-19T01:07:07;98504.94;;;17.66;100.00
50226;BME280;36113;50.742;6.432;2022-08-19T01:09:33;98498.00;;;17.65;100.00
50226;BME280;36113;50.742;6.432;2022-08-19T01:11:58;98507.81;;;17.62;100.00
50226;BME280;36113;50.742;6.432;2022-08-19T01:14:24;98506.13;;;17.61;100.00
50226;BME280;36113;50.742;6.432;2022-08-19T01:16:50;98497.88;;;17.66;100.00
50226;BME280;36113;50.742;6.432;2022-08-19T01:19:24;98499.41;;;17.69;100.00
50226;BME280;36113;50.742;6.432;2022-08-19T01:21:54;98490.72;;;17.68;100.00
50226;BME280;36113;50.742;6.432;2022-08-19T01:24:22;98497.19;;;17.64;100.00
50226;BME280;36113;50.742;6.432;2022-08-19T01:26:48;98491.94;;;17.64;100.00
50226;BME280;36113;50.742;6.432;2022-08-19T01:29:13;98490.84;;;17.67;100.00
50226;BME280;36113;50.742;6.432;2022-08-19T01:31:39;98498.38;;;17.60;100.00
50226;BME280;36113;50.742;6.432;2022-08-19T01:34:04;98498.38;;;17.60;100.00
50226;BME280;36113;50.742;6.432;2022-08-19T01:36:31;98492.31;;;17.59;100.00
50226;BME280;36113;50.742;6.432;2022-08-19T01:38:57;98492.31;;;17.59;100.00
50226;BME280;36113;50.742;6.432;2022-08-19T01:41:23;98488.31;;;17.55;100.00
50226;BME280;36113;50.742;6.432;2022-08-19T01:43:49;98484.13;;;17.53;100.00
50226;BME280;36113;50.742;6.432;2022-08-19T01:46:15;98486.75;;;17.53;100.00
50226;BME280;36113;50.742;6.432;2022-08-19T01:48:41;98484.94;;;17.53;100.00
50226;BME280;36113;50.742;6.432;2022-08-19T01:51:07;98483.69;;;17.48;100.00
50226;BME280;36113;50.742;6.432;2022-08-19T01:53:34;98480.59;;;17.42;100.00
50226;BME280;36113;50.742;6.432;2022-08-19T01:55:59;98471.09;;;17.41;100.00
50226;BME280;36113;50.742;6.432;2022-08-19T01:58:27;98468.84;;;17.37;100.00
50226;BME280;36113;50.742;6.432;2022-08-19T02:00:55;98472.28;;;17.37;100.00
50226;BME280;36113;50.742;6.432;2022-08-19T02:03:21;98474.78;;;17.39;100.00
50226;BME280;36113;50.742;6.432;2022-08-19T02:05:46;98481.13;;;17.36;100.00
50226;BME280;36113;50.742;6.432;2022-08-19T02:08:11;98480.41;;;17.34;100.00
50226;BME280;36113;50.742;6.432;2022-08-19T02:10:40;98477.91;;;17.33;100.00
50226;BME280;36113;50.742;6.432;2022-08-19T02:13:06;98467.56;;;17.31;100.00
50226;BME280;36113;50.742;6.432;2022-08-19T02:15:31;98468.50;;;17.30;100.00
50226;BME280;36113;50.742;6.432;2022-08-19T02:17:57;98467.94;;;17.27;100.00
50226;BME280;36113;50.742;6.432;2022-08-19T02:20:22;98471.25;;;17.29;100.00
50226;BME280;36113;50.742;6.432;2022-08-19T02:22:47;98474.69;;;17.29;100.00
50226;BME280;36113;50.742;6.432;2022-08-19T02:25:13;98470.19;;;17.31;100.00
50226;BME280;36113;50.742;6.432;2022-08-19T02:27:38;98475.28;;;17.33;100.00
50226;BME280;36113;50.742;6.432;2022-08-19T02:30:09;98468.38;;;17.32;100.00
50226;BME280;36113;50.742;6.432;2022-08-19T02:32:35;98474.69;;;17.29;100.00
50226;BME280;36113;50.742;6.432;2022-08-19T02:35:00;98472.81;;;17.31;100.00
50226;BME280;36113;50.742;6.432;2022-08-19T02:37:26;98477.78;;;17.34;100.00
50226;BME280;36113;50.742;6.432;2022-08-19T02:40:10;98482.53;;;17.40;100.00
50226;BME280;36113;50.742;6.432;2022-08-19T02:42:35;98482.97;;;17.46;100.00
50226;BME280;36113;50.742;6.432;2022-08-19T02:45:01;98483.47;;;17.39;100.00
50226;BME280;36113;50.742;6.432;2022-08-19T02:47:26;98481.59;;;17.41;100.00
50226;BME280;36113;50.742;6.432;2022-08-19T02:49:51;98478.22;;;17.39;100.00
50226;BME280;36113;50.742;6.432;2022-08-19T02:52:16;98475.72;;;17.38;100.00
50226;BME280;36113;50.742;6.432;2022-08-19T02:54:42;98485.84;;;17.42;100.00
50226;BME280;36113;50.742;6.432;2022-08-19T02:57:07;98486.41;;;17.46;100.00
50226;BME280;36113;50.742;6.432;2022-08-19T02:59:33;98494.97;;;17.48;100.00
50226;BME280;36113;50.742;6.432;2022-08-19T03:01:58;98483.31;;;17.52;100.00
50226;BME280;36113;50.742;6.432;2022-08-19T03:04:23;98479.47;;;17.56;100.00
50226;BME280;36113;50.742;6.432;2022-08-19T03:06:49;98475.44;;;17.52;100.00
50226;BME280;36113;50.742;6.432;2022-08-19T03:09:14;98477.66;;;17.57;100.00
50226;BME280;36113;50.742;6.432;2022-08-19T03:11:40;98482.78;;;17.58;100.00
50226;BME280;36113;50.742;6.432;2022-08-19T03:14:06;98478.44;;;17.48;100.00
50226;BME280;36113;50.742;6.432;2022-08-19T03:16:32;98477.38;;;17.50;100.00
50226;BME280;36113;50.742;6.432;2022-08-19T03:18:57;98472.69;;;17.54;100.00
50226;BME280;36113;50.742;6.432;2022-08-19T03:21:26;98481.63;;;17.51;100.00
50226;BME280;36113;50.742;6.432;2022-08-19T03:23:54;98481.06;;;17.48;100.00
50226;BME280;36113;50.742;6.432;2022-08-19T03:26:20;98480.22;;;17.47;100.00
50226;BME280;36113;50.742;6.432;2022-08-19T03:28:45;98478.06;;;17.52;100.00
50226;BME280;36113;50.742;6.432;2022-08-19T03:31:15;98485.53;;;17.57;100.00
50226;BME280;36113;50.742;6.432;2022-08-19T03:33:40;98490.53;;;17.60;100.00
50226;BME280;36113;50.742;6.432;2022-08-19T03:38:33;98486.50;;;17.56;100.00
50226;BME280;36113;50.742;6.432;2022-08-19T03:41:01;98484.50;;;17.48;100.00
50226;BME280;36113;50.742;6.432;2022-08-19T03:43:27;98485.34;;;17.49;100.00
50226;BME280;36113;50.742;6.432;2022-08-19T03:46:00;98483.34;;;17.41;100.00
50226;BME280;36113;50.742;6.432;2022-08-19T03:48:25;98484.56;;;17.37;100.00
50226;BME280;36113;50.742;6.432;2022-08-19T03:50:50;98482.44;;;17.31;100.00
50226;BME280;36113;50.742;6.432;2022-08-19T03:53:16;98484.56;;;17.37;100.00
50226;BME280;36113;50.742;6.432;2022-08-19T03:55:41;98486.09;;;17.39;100.00
50226;BME280;36113;50.742;6.432;2022-08-19T03:58:06;98490.06;;;17.34;100.00
50226;BME280;36113;50.742;6.432;2022-08-19T04:00:31;98486.97;;;17.29;100.00
50226;BME280;36113;50.742;6.432;2022-08-19T04:02:58;98486.53;;;17.23;100.00
50226;BME280;36113;50.742;6.432;2022-08-19T04:05:23;98486.75;;;17.20;100.00
50226;BME280;36113;50.742;6.432;2022-08-19T04:07:49;98491.06;;;17.21;100.00
50226;BME280;36113;50.742;6.432;2022-08-19T04:10:14;98490.47;;;17.18;100.00
50226;BME280;36113;50.742;6.432;2022-08-19T04:12:39;98488.94;;;17.15;100.00
50226;BME280;36113;50.742;6.432;2022-08-19T04:15:04;98493.00;;;17.08;100.00
50226;BME280;36113;50.742;6.432;2022-08-19T04:17:31;98499.06;;;17.09;100.00
50226;BME280;36113;50.742;6.432;2022-08-19T04:19:56;98485.97;;;17.09;100.00
50226;BME280;36113;50.742;6.432;2022-08-19T04:22:21;98492.78;;;17.00;100.00
50226;BME280;36113;50.742;6.432;2022-08-19T04:24:47;98483.06;;;16.91;100.00
50226;BME280;36113;50.742;6.432;2022-08-19T04:27:12;98492.44;;;16.93;100.00
50226;BME280;36113;50.742;6.432;2022-08-19T04:29:37;98502.91;;;16.93;100.00
50226;BME280;36113;50.742;6.432;2022-08-19T04:32:04;98509.97;;;16.93;100.00
50226;BME280;36113;50.742;6.432;2022-08-19T04:34:30;98509.59;;;16.86;100.00
50226;BME280;36113;50.742;6.432;2022-08-19T04:36:56;98512.22;;;16.86;100.00
50226;BME280;36113;50.742;6.432;2022-08-19T04:39:27;98510.19;;;16.90;100.00
50226;BME280;36113;50.742;6.432;2022-08-19T04:42:13;98517.34;;;16.87;100.00
50226;BME280;36113;50.742;6.432;2022-08-19T04:44:57;98517.94;;;16.91;100.00
50226;BME280;36113;50.742;6.432;2022-08-19T04:47:23;98507.47;;;16.80;100.00
50226;BME280;36113;50.742;6.432;2022-08-19T04:49:48;98522.91;;;16.83;100.00
50226;BME280;36113;50.742;6.432;2022-08-19T04:52:14;98522.00;;;16.84;100.00
50226;BME280;36113;50.742;6.432;2022-08-19T04:54:39;98532.56;;;16.82;100.00
50226;BME280;36113;50.742;6.432;2022-08-19T04:57:07;98531.53;;;16.85;100.00
50226;BME280;36113;50.742;6.432;2022-08-19T04:59:33;98546.47;;;16.83;100.00
50226;BME280;36113;50.742;6.432;2022-08-19T05:01:58;98541.50;;;16.80;100.00
50226;BME280;36113;50.742;6.432;2022-08-19T05:04:23;98536.63;;;16.75;100.00
50226;BME280;36113;50.742;6.432;2022-08-19T05:06:49;98540.78;;;16.78;100.00
50226;BME280;36113;50.742;6.432;2022-08-19T05:09:14;98536.50;;;16.77;100.00
50226;BME280;36113;50.742;6.432;2022-08-19T05:11:40;98555.06;;;16.74;100.00
50226;BME280;36113;50.742;6.432;2022-08-19T05:14:08;98555.19;;;16.72;100.00
50226;BME280;36113;50.742;6.432;2022-08-19T05:16:34;98564.84;;;16.72;100.00
50226;BME280;36113;50.742;6.432;2022-08-19T05:18:59;98567.09;;;16.65;100.00
50226;BME280;36113;50.742;6.432;2022-08-19T05:21:43;98572.22;;;16.66;100.00
50226;BME280;36113;50.742;6.432;2022-08-19T05:24:28;98564.72;;;16.62;100.00
50226;BME280;36113;50.742;6.432;2022-08-19T05:26:53;98577.34;;;16.68;100.00
50226;BME280;36113;50.742;6.432;2022-08-19T05:29:21;98568.97;;;16.74;100.00
50226;BME280;36113;50.742;6.432;2022-08-19T05:31:47;98569.25;;;16.71;100.00
50226;BME280;36113;50.742;6.432;2022-08-19T05:34:14;98570.19;;;16.81;100.00
50226;BME280;36113;50.742;6.432;2022-08-19T05:36:40;98572.47;;;16.86;100.00
50226;BME280;36113;50.742;6.432;2022-08-19T05:39:07;98573.63;;;16.93;100.00
50226;BME280;36113;50.742;6.432;2022-08-19T05:41:33;98572.22;;;17.00;100.00
50226;BME280;36113;50.742;6.432;2022-08-19T05:44:03;98571.94;;;17.03;100.00
50226;BME280;36113;50.742;6.432;2022-08-19T05:46:31;98567.06;;;17.10;100.00
50226;BME280;36113;50.742;6.432;2022-08-19T05:48:56;98566.34;;;17.19;100.00
50226;BME280;36113;50.742;6.432;2022-08-19T05:51:22;98557.25;;;17.35;100.00
50226;BME280;36113;50.742;6.432;2022-08-19T05:53:47;98567.47;;;17.38;100.00
50226;BME280;36113;50.742;6.432;2022-08-19T05:56:13;98563.66;;;17.42;100.00
50226;BME280;36113;50.742;6.432;2022-08-19T05:58:41;98560.91;;;17.43;100.00
50226;BME280;36113;50.742;6.432;2022-08-19T06:01:10;98564.81;;;17.49;100.00
50226;BME280;36113;50.742;6.432;2022-08-19T06:03:36;98566.75;;;17.47;100.00
50226;BME280;36113;50.742;6.432;2022-08-19T06:06:02;98576.66;;;17.43;100.00
50226;BME280;36113;50.742;6.432;2022-08-19T06:08:28;98571.41;;;17.43;100.00
50226;BME280;36113;50.742;6.432;2022-08-19T06:10:53;98571.06;;;17.37;100.00
50226;BME280;36113;50.742;6.432;2022-08-19T06:13:19;98570.53;;;17.43;100.00
50226;BME280;36113;50.742;6.432;2022-08-19T06:15:44;98569.50;;;17.34;100.00
50226;BME280;36113;50.742;6.432;2022-08-19T06:18:11;98571.41;;;17.32;100.00
50226;BME280;36113;50.742;6.432;2022-08-19T06:20:36;98570.25;;;17.25;100.00
50226;BME280;36113;50.742;6.432;2022-08-19T06:23:01;98574.16;;;17.31;100.00
50226;BME280;36113;50.742;6.432;2022-08-19T06:25:27;98568.81;;;17.32;100.00
50226;BME280;36113;50.742;6.432;2022-08-19T06:27:52;98569.91;;;17.30;100.00
50226;BME280;36113;50.742;6.432;2022-08-19T06:30:18;98573.94;;;17.22;100.00
50226;BME280;36113;50.742;6.432;2022-08-19T06:32:43;98575.16;;;17.18;100.00
50226;BME280;36113;50.742;6.432;2022-08-19T06:35:09;98579.94;;;17.13;100.00
50226;BME280;36113;50.742;6.432;2022-08-19T06:37:34;98584.69;;;17.19;100.00
50226;BME280;36113;50.742;6.432;2022-08-19T06:39:59;98580.72;;;17.25;100.00
50226;BME280;36113;50.742;6.432;2022-08-19T06:42:24;98581.81;;;17.22;100.00
50226;BME280;36113;50.742;6.432;2022-08-19T06:44:49;98580.63;;;17.27;100.00
50226;BME280;36113;50.742;6.432;2022-08-19T06:47:16;98590.34;;;17.36;100.00
50226;BME280;36113;50.742;6.432;2022-08-19T06:49:42;98590.69;;;17.42;100.00
50226;BME280;36113;50.742;6.432;2022-08-19T06:52:11;98587.59;;;17.49;100.00
50226;BME280;36113;50.742;6.432;2022-08-19T06:54:39;98592.50;;;17.42;100.00
50226;BME280;36113;50.742;6.432;2022-08-19T06:57:05;98590.34;;;17.47;100.00
50226;BME280;36113;50.742;6.432;2022-08-19T06:59:32;98594.13;;;17.43;100.00
50226;BME280;36113;50.742;6.432;2022-08-19T07:01:58;98589.00;;;17.53;100.00
50226;BME280;36113;50.742;6.432;2022-08-19T07:04:27;98586.50;;;17.51;100.00
50226;BME280;36113;50.742;6.432;2022-08-19T07:07:00;98591.94;;;17.59;100.00
50226;BME280;36113;50.742;6.432;2022-08-19T07:09:26;98593.69;;;17.70;100.00
50226;BME280;36113;50.742;6.432;2022-08-19T07:11:52;98602.47;;;17.80;100.00
50226;BME280;36113;50.742;6.432;2022-08-19T07:14:18;98600.63;;;18.04;100.00
50226;BME280;36113;50.742;6.432;2022-08-19T07:16:44;98601.56;;;18.24;100.00
50226;BME280;36113;50.742;6.432;2022-08-19T07:19:10;98594.88;;;18.41;100.00
50226;BME280;36113;50.742;6.432;2022-08-19T07:21:36;98595.56;;;18.64;100.00
50226;BME280;36113;50.742;6.432;2022-08-19T07:24:01;98597.13;;;18.76;100.00
50226;BME280;36113;50.742;6.432;2022-08-19T07:26:28;98593.91;;;18.93;100.00
50226;BME280;36113;50.742;6.432;2022-08-19T07:28:54;98597.16;;;19.26;100.00
50226;BME280;36113;50.742;6.432;2022-08-19T07:31:20;98595.25;;;19.58;100.00
50226;BME280;36113;50.742;6.432;2022-08-19T07:33:46;98604.72;;;19.90;98.88
50226;BME280;36113;50.742;6.432;2022-08-19T07:36:12;98604.16;;;20.15;95.98
50226;BME280;36113;50.742;6.432;2022-08-19T07:38:39;98606.19;;;20.41;96.39
50226;BME280;36113;50.742;6.432;2022-08-19T07:41:05;98616.09;;;20.57;93.55
50226;BME280;36113;50.742;6.432;2022-08-19T07:43:30;98613.34;;;20.68;93.05
50226;BME280;36113;50.742;6.432;2022-08-19T07:45:56;98613.41;;;20.76;92.95
50226;BME280;36113;50.742;6.432;2022-08-19T07:48:26;98624.69;;;20.69;89.22
50226;BME280;36113;50.742;6.432;2022-08-19T07:50:52;98625.25;;;20.63;89.57
50226;BME280;36113;50.742;6.432;2022-08-19T07:53:18;98631.81;;;20.39;90.09
50226;BME280;36113;50.742;6.432;2022-08-19T07:55:44;98630.84;;;20.30;90.79
50226;BME280;36113;50.742;6.432;2022-08-19T07:58:15;98623.13;;;20.29;92.21
50226;BME280;36113;50.742;6.432;2022-08-19T08:00:40;98618.34;;;20.42;92.44
50226;BME280;36113;50.742;6.432;2022-08-19T08:03:06;98621.25;;;20.49;93.17
50226;BME280;36113;50.742;6.432;2022-08-19T08:05:33;98616.84;;;20.49;92.45
50226;BME280;36113;50.742;6.432;2022-08-19T08:08:17;98621.47;;;20.75;93.40
50226;BME280;36113;50.742;6.432;2022-08-19T08:11:01;98620.53;;;21.04;92.78
50226;BME280;36113;50.742;6.432;2022-08-19T08:13:26;98626.69;;;21.22;91.37
50226;BME280;36113;50.742;6.432;2022-08-19T08:15:52;98621.25;;;21.24;90.28
50226;BME280;36113;50.742;6.432;2022-08-19T08:18:17;98620.44;;;21.41;89.94
50226;BME280;36113;50.742;6.432;2022-08-19T08:20:43;98624.78;;;21.60;89.78
50226;BME280;36113;50.742;6.432;2022-08-19T08:23:08;98623.59;;;21.72;88.17
50226;BME280;36113;50.742;6.432;2022-08-19T08:25:57;98630.25;;;21.77;88.83
50226;BME280;36113;50.742;6.432;2022-08-19T08:28:23;98633.25;;;21.82;88.96
50226;BME280;36113;50.742;6.432;2022-08-19T08:30:48;98630.16;;;21.68;87.83
50226;BME280;36113;50.742;6.432;2022-08-19T08:33:18;98633.00;;;21.57;88.94
50226;BME280;36113;50.742;6.432;2022-08-19T08:35:44;98636.41;;;21.49;88.65
50226;BME280;36113;50.742;6.432;2022-08-19T08:38:10;98636.00;;;21.44;89.84
50226;BME280;36113;50.742;6.432;2022-08-19T08:45:34;98642.38;;;21.42;89.71
50226;BME280;36113;50.742;6.432;2022-08-19T08:48:01;98648.00;;;21.57;90.84
50226;BME280;36113;50.742;6.432;2022-08-19T08:50:34;98646.97;;;21.67;89.80
50226;BME280;36113;50.742;6.432;2022-08-19T08:53:01;98640.78;;;21.59;88.47
50226;BME280;36113;50.742;6.432;2022-08-19T08:55:27;98642.34;;;21.69;90.09
50226;BME280;36113;50.742;6.432;2022-08-19T08:58:03;98640.69;;;21.86;89.36
50226;BME280;36113;50.742;6.432;2022-08-19T09:00:32;98618.38;;;21.99;89.55
50226;BME280;36113;50.742;6.432;2022-08-19T09:02:58;98643.56;;;22.29;87.54
50226;BME280;36113;50.742;6.432;2022-08-19T09:05:25;98635.06;;;22.43;87.03
50226;BME280;36113;50.742;6.432;2022-08-19T09:10:29;98635.19;;;22.60;87.28
50226;BME280;36113;50.742;6.432;2022-08-19T09:15:34;98630.06;;;22.93;83.41
50226;BME280;36113;50.742;6.432;2022-08-19T09:18:02;98637.00;;;22.94;82.47
50226;BME280;36113;50.742;6.432;2022-08-19T09:20:28;98634.88;;;22.97;80.28
50226;BME280;36113;50.742;6.432;2022-08-19T09:22:53;98636.06;;;23.03;81.67
50226;BME280;36113;50.742;6.432;2022-08-19T09:25:19;98643.44;;;22.91;80.79
50226;BME280;36113;50.742;6.432;2022-08-19T09:27:47;98638.16;;;22.91;80.63
50226;BME280;36113;50.742;6.432;2022-08-19T09:30:16;98637.13;;;22.84;81.70
50226;BME280;36113;50.742;6.432;2022-08-19T09:32:42;98637.22;;;23.00;81.15
50226;BME280;36113;50.742;6.432;2022-08-19T09:35:08;98640.13;;;23.24;81.23
50226;BME280;36113;50.742;6.432;2022-08-19T09:37:33;98642.50;;;23.35;79.56
50226;BME280;36113;50.742;6.432;2022-08-19T09:39:58;98640.59;;;23.11;80.94
50226;BME280;36113;50.742;6.432;2022-08-19T09:42:23;98642.72;;;23.07;83.18
50226;BME280;36113;50.742;6.432;2022-08-19T09:44:49;98651.03;;;23.12;83.39
50226;BME280;36113;50.742;6.432;2022-08-19T09:47:14;98647.09;;;22.98;82.30
50226;BME280;36113;50.742;6.432;2022-08-19T09:49:40;98643.44;;;22.91;81.18
50226;BME280;36113;50.742;6.432;2022-08-19T09:52:06;98639.84;;;23.00;82.27
50226;BME280;36113;50.742;6.432;2022-08-19T09:54:33;98646.44;;;23.23;82.66
50226;BME280;36113;50.742;6.432;2022-08-19T09:56:58;98645.28;;;23.33;80.76
50226;BME280;36113;50.742;6.432;2022-08-19T09:59:25;98639.56;;;23.54;77.46
50226;BME280;36113;50.742;6.432;2022-08-19T10:01:50;98643.41;;;23.76;77.12
50226;BME280;36113;50.742;6.432;2022-08-19T10:04:16;98652.81;;;23.79;78.60
50226;BME280;36113;50.742;6.432;2022-08-19T10:06:42;98648.13;;;23.48;77.17
50226;BME280;36113;50.742;6.432;2022-08-19T10:09:08;98644.88;;;23.63;78.31
50226;BME280;36113;50.742;6.432;2022-08-19T10:11:34;98649.72;;;23.84;77.13
50226;BME280;36113;50.742;6.432;2022-08-19T10:14:01;98645.72;;;23.80;76.29
50226;BME280;36113;50.742;6.432;2022-08-19T10:16:27;98651.47;;;23.67;77.23
50226;BME280;36113;50.742;6.432;2022-08-19T10:18:53;98650.66;;;23.66;78.46
50226;BME280;36113;50.742;6.432;2022-08-19T10:23:47;98645.81;;;23.53;79.97
50226;BME280;36113;50.742;6.432;2022-08-19T10:26:13;98650.50;;;23.59;80.04
50226;BME280;36113;50.742;6.432;2022-08-19T10:28:39;98654.13;;;23.50;80.22
50226;BME280;36113;50.742;6.432;2022-08-19T10:31:08;98649.97;;;23.48;81.32
50226;BME280;36113;50.742;6.432;2022-08-19T10:33:34;98643.88;;;23.55;80.47
50226;BME280;36113;50.742;6.432;2022-08-19T10:36:01;98647.50;;;23.54;79.16
50226;BME280;36113;50.742;6.432;2022-08-19T10:38:26;98644.09;;;23.19;81.77
50226;BME280;36113;50.742;6.432;2022-08-19T10:40:53;98654.31;;;23.14;81.06
50226;BME280;36113;50.742;6.432;2022-08-19T10:43:18;98651.66;;;23.06;82.00
50226;BME280;36113;50.742;6.432;2022-08-19T10:45:48;98645.06;;;23.18;82.39
50226;BME280;36113;50.742;6.432;2022-08-19T10:48:16;98653.44;;;23.40;81.85
50226;BME280;36113;50.742;6.432;2022-08-19T10:50:41;98648.31;;;23.47;80.24
50226;BME280;36113;50.742;6.432;2022-08-19T10:53:25;98645.28;;;23.33;78.26
50226;BME280;36113;50.742;6.432;2022-08-19T10:55:50;98646.97;;;23.43;78.85
50226;BME280;36113;50.742;6.432;2022-08-19T10:58:35;98637.41;;;23.58;77.68
50226;BME280;36113;50.742;6.432;2022-08-19T11:01:01;98643.56;;;23.75;74.82
50226;BME280;36113;50.742;6.432;2022-08-19T11:03:27;98647.03;;;23.75;73.86
50226;BME280;36113;50.742;6.432;2022-08-19T11:05:59;98639.81;;;23.94;72.72
50226;BME280;36113;50.742;6.432;2022-08-19T11:08:24;98635.34;;;24.03;73.00
50226;BME280;36113;50.742;6.432;2022-08-19T11:10:52;98633.69;;;24.02;71.86
50226;BME280;36113;50.742;6.432;2022-08-19T11:13:20;98630.22;;;24.09;71.26
50226;BME280;36113;50.742;6.432;2022-08-19T11:15:45;98637.31;;;24.33;71.66
50226;BME280;36113;50.742;6.432;2022-08-19T11:18:12;98640.59;;;24.52;71.83
50226;BME280;36113;50.742;6.432;2022-08-19T11:20:37;98638.78;;;24.61;67.98
50226;BME280;36113;50.742;6.432;2022-08-19T11:23:02;98634.78;;;24.65;66.34
50226;BME280;36113;50.742;6.432;2022-08-19T11:25:28;98628.50;;;24.49;65.77
50226;BME280;36113;50.742;6.432;2022-08-19T11:27:53;98615.78;;;24.45;66.10
50226;BME280;36113;50.742;6.432;2022-08-19T11:30:18;98616.09;;;24.42;66.05
50226;BME280;36113;50.742;6.432;2022-08-19T11:32:43;98621.41;;;24.50;66.24
50226;BME280;36113;50.742;6.432;2022-08-19T11:35:08;98617.84;;;24.82;65.68
50226;BME280;36113;50.742;6.432;2022-08-19T11:37:36;98619.44;;;25.00;62.79
50226;BME280;36113;50.742;6.432;2022-08-19T11:40:02;98613.28;;;24.99;61.19
50226;BME280;36113;50.742;6.432;2022-08-19T11:42:27;98605.97;;;25.01;61.99
50226;BME280;36113;50.742;6.432;2022-08-19T11:45:11;98605.50;;;24.98;62.65
50226;BME280;36113;50.742;6.432;2022-08-19T11:47:38;98604.69;;;24.97;62.07
50226;BME280;36113;50.742;6.432;2022-08-19T11:50:04;98613.88;;;25.18;60.99
50226;BME280;36113;50.742;6.432;2022-08-19T11:52:30;98615.13;;;25.38;59.36
50226;BME280;36113;50.742;6.432;2022-08-19T11:54:56;98606.41;;;25.53;59.63
50226;BME280;36113;50.742;6.432;2022-08-19T11:57:21;98602.44;;;25.72;59.95
50226;BME280;36113;50.742;6.432;2022-08-19T11:59:50;98611.75;;;25.99;58.47
50226;BME280;36113;50.742;6.432;2022-08-19T12:02:16;98602.41;;;26.03;56.10
50226;BME280;36113;50.742;6.432;2022-08-19T12:04:41;98613.13;;;25.87;57.55
50226;BME280;36113;50.742;6.432;2022-08-19T12:07:06;98608.91;;;26.00;57.69
50226;BME280;36113;50.742;6.432;2022-08-19T12:09:31;98604.28;;;25.71;57.17
50226;BME280;36113;50.742;6.432;2022-08-19T12:11:59;98612.44;;;25.70;58.14
50226;BME280;36113;50.742;6.432;2022-08-19T12:14:25;98616.44;;;25.89;58.28
50226;BME280;36113;50.742;6.432;2022-08-19T12:16:52;98609.19;;;26.06;57.05
50226;BME280;36113;50.742;6.432;2022-08-19T12:19:18;98609.00;;;26.07;58.22
50226;BME280;36113;50.742;6.432;2022-08-19T12:21:43;98607.72;;;26.03;56.98
50226;BME280;36113;50.742;6.432;2022-08-19T12:24:09;98604.69;;;25.83;56.83
50226;BME280;36113;50.742;6.432;2022-08-19T12:26:34;98602.69;;;25.85;57.84
50226;BME280;36113;50.742;6.432;2022-08-19T12:29:00;98593.34;;;26.12;58.37
50226;BME280;36113;50.742;6.432;2022-08-19T12:31:26;98595.41;;;26.40;57.35
50226;BME280;36113;50.742;6.432;2022-08-19T12:33:53;98593.97;;;26.37;56.51
50226;BME280;36113;50.742;6.432;2022-08-19T12:36:18;98583.53;;;26.13;57.65
50226;BME280;36113;50.742;6.432;2022-08-19T12:38:43;98588.72;;;26.29;58.53
50226;BME280;36113;50.742;6.432;2022-08-19T12:41:10;98587.50;;;26.32;56.75
50226;BME280;36113;50.742;6.432;2022-08-19T12:43:35;98582.94;;;26.26;55.79
50226;BME280;36113;50.742;6.432;2022-08-19T12:46:02;98588.16;;;26.19;56.81
50226;BME280;36113;50.742;6.432;2022-08-19T12:48:29;98589.84;;;25.97;56.48
50226;BME280;36113;50.742;6.432;2022-08-19T12:50:54;98590.47;;;25.99;56.18
50226;BME280;36113;50.742;6.432;2022-08-19T12:53:19;98592.31;;;25.75;55.46
50226;BME280;36113;50.742;6.432;2022-08-19T12:55:44;98596.03;;;25.66;56.91
50226;BME280;36113;50.742;6.432;2022-08-19T12:58:10;98596.97;;;25.73;56.66
50226;BME280;36113;50.742;6.432;2022-08-19T13:00:35;98594.09;;;25.60;58.71
50226;BME280;36113;50.742;6.432;2022-08-19T13:03:00;98600.56;;;25.57;58.77
50226;BME280;36113;50.742;6.432;2022-08-19T13:05:27;98588.72;;;25.68;58.64
50226;BME280;36113;50.742;6.432;2022-08-19T13:07:54;98588.00;;;25.74;58.68